Meridian Naval Air Station
KNMM : now visible

Airfield :











YOU CAN JOIN US ON...

 
LOGIN :

Register | Disclaimer

   EN    FR    IT 

 









Legend :    VFR   Marginal VFR   IFR   Intensive IFR   Very Intensive IFR
Visi :
Ceiling :
>= 8 km
>= 3000ft
5 to 8 km
1000 to 3000 ft
1500m to 5 km
500 to 1000 ft
800 to 1500m
200 to 500 ft
< 800m
< 200 ft
Symbols :   Thunderstorms  Fog  Heavy snow  Heavy precipitations  Wind > 20 kt







- Airport Elevation : 316 ft


KNMM - Meridian Naval Air Station

CURRENT METAR :
  • 252340Z 14005KT 10SM SCT009 OVC015 19/18 A2977 RMK AO2 T01890178

EXPIRED METARs :
  • 252256Z 14006KT 10SM BKN007 OVC013 19/18 A2978 RMK AO2 CIG 005V009 SLP092 T01890178
  • 252156Z 14004KT 10SM BKN007 OVC070 18/17 A2977 RMK AO2 SLP090 T01830172
  • 252119Z 16004KT 10SM SCT007 OVC075 18/17 A2980 RMK AO2 T01830172
  • 252056Z 15003KT 10SM BKN007 OVC100 18/17 A2979 RMK AO2 RAE00 SLP096 P0000 60014 T01830172 56039

TAF TAF KNMM
Valid from the 25 at 23:00 until the 26 at 23:00 UTC


2523/2623 18006KT 9999 VCSH BKN007 OVC013 542409 543306 QNH2971INS
TEMPO 2600/2603 4800 -SHRA BR SCT007 BKN013 OVC070
FM260300 26009KT 9999 BKN020 BKN035 510003 542409 543306 QNH2978INS
FM261000 31011KT 9999 SCT008 BKN012 OVC020 510003 QNH2987INS
FM261400 33018G25KT 9999 BKN025 520003 QNH2998INS
FM261800 34015G22KT 9999 SKC 520003 QNH3000INS AUTOMATED SENSOR METWATCH 2605 TIL 2612 T14/2612Z T24/2621Z FN20037
KZME FIR / North America



MET'MAP, your aeronautical weather chart ! - Copyright ORBIFLY December 2007 - Disclaimer

ORBIFLY MET'MAP TEAM :

Programming & Development : Alexandra Zaïnal
Concept & Development : Baudouin d'Aumeries
Co-Development & Prog : Marc-Olivier Méhu
Technical & hardware support : Manuel Goepfert

Contact : metmap@orbifly.com




SOURCES & CREDITS :

   NOAA       Earth
Advisory